createdAt,value
2022-08-17T00:02:21.173Z,12.60
2022-08-17T00:04:40.308Z,6.90
2022-08-17T00:06:54.599Z,7.40
2022-08-17T00:09:08.558Z,9.30
2022-08-17T00:11:24.004Z,15.80
2022-08-17T00:13:39.763Z,8.10
2022-08-17T00:15:53.191Z,13.30
2022-08-17T00:19:06.808Z,11.10
2022-08-17T00:20:40.165Z,13.90
2022-08-17T00:22:53.569Z,6.40
2022-08-17T00:25:08.409Z,4.70
2022-08-17T00:27:21.601Z,8.00
2022-08-17T00:29:34.748Z,7.90
2022-08-17T00:31:48.010Z,13.80
2022-08-17T00:34:01.403Z,9.20
2022-08-17T00:36:15.223Z,12.60
2022-08-17T00:38:29.212Z,11.50
2022-08-17T00:40:45.109Z,11.00
2022-08-17T00:42:58.575Z,7.80
2022-08-17T00:45:14.335Z,13.80
2022-08-17T00:47:27.786Z,6.20
2022-08-17T00:49:40.912Z,13.60
2022-08-17T00:51:58.666Z,8.20
2022-08-17T00:54:14.362Z,8.40
2022-08-17T00:56:32.092Z,7.10
2022-08-17T00:58:45.402Z,10.50
2022-08-17T01:01:02.804Z,6.20
2022-08-17T01:03:20.923Z,18.20
2022-08-17T01:05:42.246Z,3.80
2022-08-17T01:07:57.213Z,5.30
2022-08-17T01:10:59.967Z,5.90
2022-08-17T01:12:46.973Z,6.80
2022-08-17T01:15:00.103Z,13.60
2022-08-17T01:17:13.671Z,9.30
2022-08-17T01:19:29.400Z,3.70
2022-08-17T01:21:46.633Z,23.40
2022-08-17T01:23:59.926Z,19.90
2022-08-17T01:26:13.242Z,3.90
2022-08-17T01:28:52.556Z,6.60
2022-08-17T01:31:02.762Z,3.10
2022-08-17T01:33:16.016Z,3.90
2022-08-17T01:35:29.392Z,6.30
2022-08-17T01:37:48.315Z,3.40
2022-08-17T01:40:05.991Z,2.70
2022-08-17T01:42:24.723Z,2.60
2022-08-17T01:44:38.543Z,3.80
2022-08-17T01:46:51.913Z,2.20
2022-08-17T01:49:09.008Z,3.60
2022-08-17T01:51:22.991Z,2.00
2022-08-17T01:53:45.653Z,2.70
2022-08-17T01:56:03.563Z,2.40
2022-08-17T01:58:17.079Z,2.40
2022-08-17T02:00:47.828Z,4.60
2022-08-17T02:03:03.855Z,2.40
2022-08-17T02:05:17.363Z,3.20
2022-08-17T02:07:30.659Z,2.10
2022-08-17T02:09:45.219Z,4.80
2022-08-17T02:12:37.852Z,3.40
2022-08-17T02:14:40.457Z,2.90
2022-08-17T02:16:53.582Z,2.40
2022-08-17T02:19:06.773Z,3.40
2022-08-17T02:21:20.568Z,3.00
2022-08-17T02:23:36.701Z,3.20
2022-08-17T02:25:51.671Z,3.10
2022-08-17T02:28:05.203Z,3.30
2022-08-17T02:30:59.427Z,2.40
2022-08-17T02:32:54.644Z,3.30
2022-08-17T02:35:08.296Z,3.90
2022-08-17T02:37:21.741Z,3.70
2022-08-17T02:39:34.931Z,3.00
2022-08-17T02:41:48.661Z,5.10
2022-08-17T02:44:01.895Z,2.20
2022-08-17T02:46:15.776Z,3.80
2022-08-17T02:48:31.127Z,2.70
2022-08-17T02:50:45.094Z,4.10
2022-08-17T02:53:02.036Z,3.60
2022-08-17T02:55:19.827Z,3.60
2022-08-17T02:57:33.048Z,4.30
2022-08-17T02:59:49.076Z,3.70
2022-08-17T03:02:02.770Z,6.60
2022-08-17T03:04:16.017Z,5.80
2022-08-17T03:06:30.394Z,2.30
2022-08-17T03:08:43.844Z,3.40
2022-08-17T03:10:57.165Z,3.30
2022-08-17T03:13:10.465Z,4.50
2022-08-17T03:15:27.967Z,7.20
2022-08-17T03:17:41.075Z,6.10
2022-08-17T03:19:54.199Z,3.10
2022-08-17T03:22:34.762Z,3.50
2022-08-17T03:24:41.483Z,3.80
2022-08-17T03:26:54.610Z,3.80
2022-08-17T03:29:07.727Z,4.60
2022-08-17T03:31:22.741Z,3.30
2022-08-17T03:33:36.018Z,3.80
2022-08-17T03:35:49.895Z,4.30
2022-08-17T03:38:04.170Z,4.10
2022-08-17T03:40:34.602Z,5.30
2022-08-17T03:42:54.563Z,3.90
2022-08-17T03:45:09.384Z,1.80
2022-08-17T03:47:39.215Z,3.60
2022-08-17T03:50:10.718Z,3.00
2022-08-17T03:52:40.160Z,2.20
2022-08-17T03:55:09.448Z,4.60
2022-08-17T03:57:22.696Z,5.90
2022-08-17T03:59:36.825Z,3.50
2022-08-17T04:01:51.610Z,5.40
2022-08-17T04:04:06.509Z,4.30
2022-08-17T04:06:19.770Z,4.00
2022-08-17T04:08:33.139Z,6.00
2022-08-17T04:10:46.683Z,4.10
2022-08-17T04:13:01.254Z,4.10
2022-08-17T04:15:15.816Z,2.60
2022-08-17T04:17:31.387Z,7.20
2022-08-17T04:19:44.909Z,5.80
2022-08-17T04:21:58.990Z,5.30
2022-08-17T04:24:12.753Z,4.90
2022-08-17T04:26:53.063Z,3.70
2022-08-17T04:28:59.828Z,4.30
2022-08-17T04:31:13.278Z,3.80
2022-08-17T04:33:28.545Z,4.00
2022-08-17T04:35:44.157Z,7.10
2022-08-17T04:37:57.572Z,4.70
2022-08-17T04:40:28.474Z,4.80
2022-08-17T04:42:41.794Z,5.30
2022-08-17T04:44:55.033Z,4.50
2022-08-17T04:47:08.582Z,4.10
2022-08-17T04:49:23.968Z,7.70
2022-08-17T04:51:39.119Z,7.30
2022-08-17T04:54:01.942Z,3.70
2022-08-17T04:56:19.014Z,5.10
2022-08-17T04:58:32.505Z,3.00
2022-08-17T05:00:46.108Z,5.40
2022-08-17T05:03:00.452Z,3.00
2022-08-17T05:05:14.725Z,3.10
2022-08-17T05:07:31.462Z,4.00
2022-08-17T05:09:45.139Z,4.00
2022-08-17T05:11:58.593Z,5.00
2022-08-17T05:14:11.882Z,4.20
2022-08-17T05:16:26.035Z,2.60
2022-08-17T05:18:40.334Z,3.40
2022-08-17T05:20:53.716Z,3.50
2022-08-17T05:23:09.208Z,4.20
2022-08-17T05:25:25.876Z,4.70
2022-08-17T05:27:40.164Z,6.40
2022-08-17T05:29:55.265Z,6.00
2022-08-17T05:32:38.357Z,6.20
2022-08-17T05:34:50.004Z,3.80
2022-08-17T05:37:03.224Z,4.70
2022-08-17T05:39:17.482Z,4.80
2022-08-17T05:41:30.959Z,6.50
2022-08-17T05:43:45.727Z,3.70
2022-08-17T05:46:05.805Z,4.40
2022-08-17T05:48:19.413Z,2.90
2022-08-17T05:50:37.301Z,4.20
2022-08-17T05:52:59.428Z,7.70
2022-08-17T05:55:23.317Z,2.80
2022-08-17T05:57:53.727Z,6.40
2022-08-17T06:00:16.053Z,7.10
2022-08-17T06:02:47.841Z,5.80
2022-08-17T06:05:15.991Z,5.70
2022-08-17T06:07:40.054Z,5.50
2022-08-17T06:10:04.514Z,5.30
2022-08-17T06:12:35.529Z,4.80
2022-08-17T06:15:12.280Z,5.50
2022-08-17T06:17:28.270Z,2.10
2022-08-17T06:19:47.399Z,4.60
2022-08-17T06:22:01.801Z,4.70
2022-08-17T06:24:28.594Z,8.80
2022-08-17T06:26:46.631Z,4.80
2022-08-17T06:29:03.874Z,6.60
2022-08-17T06:31:24.456Z,9.00
2022-08-17T06:33:40.991Z,13.30
2022-08-17T06:36:04.996Z,11.90
2022-08-17T06:38:37.362Z,11.60
2022-08-17T06:41:04.899Z,13.40
2022-08-17T06:43:33.861Z,18.70
2022-08-17T06:45:51.692Z,17.10
2022-08-17T06:48:10.484Z,17.40
2022-08-17T06:50:28.617Z,14.20
2022-08-17T06:52:48.528Z,8.60
2022-08-17T06:55:05.410Z,4.90
2022-08-17T06:57:23.402Z,6.60
2022-08-17T06:59:54.688Z,10.30
2022-08-17T07:02:13.509Z,6.80
2022-08-17T07:04:32.265Z,5.00
2022-08-17T07:06:50.689Z,5.80
2022-08-17T07:09:07.599Z,7.30
2022-08-17T07:11:24.030Z,9.40
2022-08-17T07:13:49.202Z,6.00
2022-08-17T07:16:14.318Z,6.90
2022-08-17T07:18:29.422Z,7.00
2022-08-17T07:20:46.812Z,5.50
2022-08-17T07:23:04.875Z,4.30
2022-08-17T07:25:20.894Z,4.90
2022-08-17T07:27:36.605Z,5.50
2022-08-17T07:29:57.845Z,10.70
2022-08-17T07:32:11.104Z,12.50
2022-08-17T07:34:24.877Z,10.40
2022-08-17T07:36:43.242Z,10.50
2022-08-17T07:39:03.185Z,11.70
2022-08-17T07:41:16.378Z,15.00
2022-08-17T07:43:32.497Z,11.20
2022-08-17T07:46:22.651Z,5.90
2022-08-17T07:48:38.685Z,6.90
2022-08-17T07:50:54.395Z,6.20
2022-08-17T07:53:23.375Z,9.20
2022-08-17T07:55:41.652Z,5.70
2022-08-17T07:58:02.035Z,7.70
2022-08-17T08:00:31.713Z,5.40
2022-08-17T08:02:48.700Z,3.20
2022-08-17T08:05:14.218Z,4.40
2022-08-17T08:07:53.274Z,5.80
2022-08-17T08:12:38.057Z,5.30
2022-08-17T08:14:59.012Z,6.90
2022-08-17T08:17:13.224Z,3.60
2022-08-17T08:19:27.431Z,2.70
2022-08-17T08:21:48.354Z,3.80
2022-08-17T08:24:10.804Z,3.50
2022-08-17T08:26:33.144Z,3.60
2022-08-17T08:28:53.652Z,7.30
2022-08-17T08:31:16.140Z,6.30
2022-08-17T08:33:46.629Z,2.20
2022-08-17T08:36:06.575Z,4.10
2022-08-17T08:38:30.407Z,4.30
2022-08-17T08:41:05.250Z,6.10
2022-08-17T08:43:30.441Z,5.70
2022-08-17T08:45:59.133Z,5.50
2022-08-17T08:48:56.244Z,4.90
2022-08-17T08:51:08.957Z,3.30
2022-08-17T08:53:35.620Z,3.80
2022-08-17T08:55:56.480Z,5.40
2022-08-17T08:58:40.454Z,2.00
2022-08-17T09:00:54.552Z,3.60
2022-08-17T09:03:51.779Z,4.50
2022-08-17T09:06:28.720Z,4.80
2022-08-17T09:09:11.636Z,2.50
2022-08-17T09:11:35.013Z,3.10
2022-08-17T09:14:21.585Z,4.90
2022-08-17T09:16:41.661Z,1.70
2022-08-17T09:19:00.179Z,2.40
2022-08-17T09:21:23.030Z,2.50
2022-08-17T09:23:43.306Z,1.20
2022-08-17T09:26:02.127Z,4.40
2022-08-17T09:28:25.576Z,1.50
2022-08-17T09:30:46.978Z,3.20
2022-08-17T09:33:05.715Z,1.80
2022-08-17T09:35:24.085Z,2.80
2022-08-17T09:37:43.405Z,2.90
2022-08-17T09:40:07.417Z,1.70
2022-08-17T09:42:27.042Z,2.20
2022-08-17T09:44:47.476Z,0.90
2022-08-17T09:47:05.161Z,1.10
2022-08-17T09:49:25.259Z,1.60
2022-08-17T09:51:43.783Z,1.50
2022-08-17T09:54:09.511Z,1.50
2022-08-17T09:57:11.527Z,2.50
2022-08-17T09:59:43.786Z,0.80
2022-08-17T10:02:05.731Z,0.80
2022-08-17T10:04:35.679Z,1.10
2022-08-17T10:06:56.580Z,0.90
2022-08-17T10:09:18.021Z,1.10
2022-08-17T10:11:50.408Z,2.00
2022-08-17T10:14:35.994Z,0.90
2022-08-17T10:16:49.355Z,2.00
2022-08-17T10:19:14.923Z,0.90
2022-08-17T10:21:45.600Z,1.90
2022-08-17T10:24:21.781Z,0.70
2022-08-17T10:26:40.385Z,1.50
2022-08-17T10:29:18.036Z,1.70
2022-08-17T10:31:36.351Z,1.10
2022-08-17T10:34:00.457Z,1.50
2022-08-17T10:36:22.515Z,1.10
2022-08-17T10:38:53.224Z,2.00
2022-08-17T10:41:10.211Z,2.40
2022-08-17T10:44:35.373Z,2.40
2022-08-17T10:46:31.429Z,1.10
2022-08-17T10:48:45.555Z,0.80
2022-08-17T10:51:09.462Z,0.90
2022-08-17T10:53:50.600Z,1.70
2022-08-17T10:56:26.927Z,1.30
2022-08-17T10:58:50.592Z,1.90
2022-08-17T11:01:06.898Z,3.30
2022-08-17T11:03:27.175Z,4.40
2022-08-17T11:06:07.804Z,3.40
2022-08-17T11:08:52.392Z,1.30
2022-08-17T11:11:21.501Z,1.00
2022-08-17T11:13:41.876Z,2.90
2022-08-17T11:16:10.084Z,1.40
2022-08-17T11:18:51.947Z,1.00
2022-08-17T11:21:27.513Z,0.90
2022-08-17T11:24:06.666Z,2.40
2022-08-17T11:26:31.481Z,2.10
2022-08-17T11:28:55.506Z,2.40
2022-08-17T11:31:13.362Z,1.60
2022-08-17T11:34:05.934Z,1.30
2022-08-17T11:36:37.722Z,1.60
2022-08-17T11:38:59.022Z,3.90
2022-08-17T11:41:25.184Z,3.20
2022-08-17T11:44:18.498Z,1.10
2022-08-17T11:49:30.250Z,1.50
2022-08-17T11:52:12.766Z,1.20
2022-08-17T11:54:48.280Z,1.10
2022-08-17T11:57:02.037Z,1.60
2022-08-17T11:59:44.932Z,1.60
2022-08-17T12:02:02.806Z,1.20
2022-08-17T12:04:32.847Z,0.70
2022-08-17T12:06:55.761Z,2.20
2022-08-17T12:09:15.674Z,0.90
2022-08-17T12:12:10.987Z,1.40
2022-08-17T12:14:08.061Z,0.90
2022-08-17T12:16:23.985Z,1.50
2022-08-17T12:18:40.773Z,0.60
2022-08-17T12:21:06.719Z,1.00
2022-08-17T12:23:26.310Z,1.60
2022-08-17T12:25:46.053Z,2.00
2022-08-17T12:28:05.550Z,0.90
2022-08-17T12:30:23.896Z,0.60
2022-08-17T12:32:41.834Z,2.70
2022-08-17T12:34:55.896Z,2.50
2022-08-17T12:37:20.317Z,1.00
2022-08-17T12:39:34.794Z,2.70
2022-08-17T12:41:50.329Z,2.60
2022-08-17T12:44:05.374Z,0.70
2022-08-17T12:46:23.238Z,1.60
2022-08-17T12:48:38.682Z,1.50
2022-08-17T12:51:12.567Z,1.10
2022-08-17T12:53:29.337Z,0.80
2022-08-17T12:55:44.216Z,0.70
2022-08-17T12:58:00.836Z,2.60
2022-08-17T13:00:21.121Z,2.60
2022-08-17T13:02:50.976Z,0.80
2022-08-17T13:05:05.501Z,0.70
2022-08-17T13:07:28.564Z,2.90
2022-08-17T13:09:41.884Z,0.80
2022-08-17T13:12:00.272Z,3.10
2022-08-17T13:14:19.515Z,1.30
2022-08-17T13:16:34.826Z,1.50
2022-08-17T13:18:50.992Z,0.80
2022-08-17T13:21:04.928Z,0.70
2022-08-17T13:23:26.121Z,0.90
2022-08-17T13:25:39.711Z,0.70
2022-08-17T13:27:53.873Z,1.80
2022-08-17T13:30:10.602Z,1.00
2022-08-17T13:32:27.389Z,0.60
2022-08-17T13:35:13.152Z,0.90
2022-08-17T13:37:40.713Z,0.80
2022-08-17T13:39:57.115Z,0.80
2022-08-17T13:42:53.134Z,0.50
2022-08-17T13:45:35.637Z,1.60
2022-08-17T13:47:50.021Z,0.70
2022-08-17T13:50:03.130Z,0.50
2022-08-17T13:52:35.938Z,2.20
2022-08-17T13:54:57.568Z,0.70
2022-08-17T13:57:21.390Z,0.50
2022-08-17T13:59:53.422Z,1.70
2022-08-17T14:02:09.554Z,1.90
2022-08-17T14:04:25.628Z,0.50
2022-08-17T14:06:53.051Z,0.60
2022-08-17T14:09:08.858Z,0.70
2022-08-17T14:11:24.795Z,0.50
2022-08-17T14:13:37.777Z,0.70
2022-08-17T14:15:53.957Z,0.80
2022-08-17T14:18:08.957Z,1.30
2022-08-17T14:20:23.911Z,0.60
2022-08-17T14:22:38.781Z,1.10
2022-08-17T14:24:52.490Z,1.00
2022-08-17T14:27:07.345Z,0.80
2022-08-17T14:29:20.454Z,1.10
2022-08-17T14:31:37.432Z,1.70
2022-08-17T14:33:50.721Z,1.00
2022-08-17T14:36:03.841Z,0.80
2022-08-17T14:38:16.788Z,2.00
2022-08-17T14:40:30.488Z,1.20
2022-08-17T14:42:46.045Z,1.00
2022-08-17T14:44:59.912Z,2.30
2022-08-17T14:47:16.040Z,1.20
2022-08-17T14:49:29.568Z,4.60
2022-08-17T14:51:43.755Z,1.10
2022-08-17T14:53:58.336Z,1.10
2022-08-17T14:56:12.064Z,0.80
2022-08-17T14:58:25.156Z,0.70
2022-08-17T15:00:38.797Z,0.90
2022-08-17T15:02:54.914Z,2.10
2022-08-17T15:05:08.949Z,2.30
2022-08-17T15:07:21.922Z,2.30
2022-08-17T15:09:43.010Z,1.60
2022-08-17T15:11:57.809Z,1.50
2022-08-17T15:14:10.809Z,1.60
2022-08-17T15:16:24.577Z,3.40
2022-08-17T15:18:37.808Z,3.10
2022-08-17T15:20:51.822Z,1.20
2022-08-17T15:23:04.843Z,3.40
2022-08-17T15:25:18.894Z,1.90
2022-08-17T15:27:32.563Z,1.40
2022-08-17T15:29:46.375Z,1.90
2022-08-17T15:32:00.925Z,1.20
2022-08-17T15:34:13.916Z,1.80
2022-08-17T15:36:26.991Z,2.20
2022-08-17T15:38:44.491Z,0.90
2022-08-17T15:40:58.767Z,1.50
2022-08-17T15:43:14.384Z,4.00
2022-08-17T15:45:29.594Z,5.90
2022-08-17T15:47:43.867Z,17.40
2022-08-17T15:50:00.044Z,12.70
2022-08-17T15:52:22.087Z,8.90
2022-08-17T15:54:36.031Z,1.30
2022-08-17T15:56:50.625Z,3.10
2022-08-17T15:59:03.820Z,2.80
2022-08-17T16:03:01.200Z,2.00
2022-08-17T16:04:04.655Z,2.20
2022-08-17T16:06:20.719Z,9.60
2022-08-17T16:08:34.287Z,8.40
2022-08-17T16:10:47.359Z,8.60
2022-08-17T16:13:00.809Z,12.70
2022-08-17T16:15:15.657Z,28.30
2022-08-17T16:17:40.330Z,14.40
2022-08-17T16:19:54.174Z,11.00
2022-08-17T16:22:07.795Z,13.50
2022-08-17T16:24:20.823Z,13.10
2022-08-17T16:26:35.215Z,15.90
2022-08-17T16:28:48.260Z,10.50
2022-08-17T16:31:01.450Z,14.90
2022-08-17T16:33:17.844Z,26.80
2022-08-17T16:35:31.468Z,20.80
2022-08-17T16:37:45.465Z,19.30
2022-08-17T16:39:58.835Z,18.70
2022-08-17T16:42:25.630Z,14.40
2022-08-17T16:44:38.630Z,8.40
2022-08-17T16:46:53.203Z,13.40
2022-08-17T16:49:06.171Z,9.20
2022-08-17T16:51:19.162Z,18.30
2022-08-17T16:53:32.231Z,23.50
2022-08-17T16:55:45.413Z,18.00
2022-08-17T16:57:58.384Z,13.80
2022-08-17T17:00:13.833Z,11.90
2022-08-17T17:02:34.404Z,10.30
2022-08-17T17:04:53.931Z,12.40
2022-08-17T17:07:20.543Z,11.60
2022-08-17T17:09:38.047Z,15.00
2022-08-17T17:11:54.852Z,9.80
2022-08-17T17:14:10.398Z,12.50
2022-08-17T17:16:40.549Z,20.10
2022-08-17T17:19:11.554Z,16.20
2022-08-17T17:21:28.899Z,14.60
2022-08-17T17:23:58.688Z,16.40
2022-08-17T17:26:23.112Z,24.50
2022-08-17T17:28:44.482Z,14.90
2022-08-17T17:31:03.080Z,23.50
2022-08-17T17:33:19.672Z,17.30
2022-08-17T17:35:36.781Z,16.70
2022-08-17T17:37:51.154Z,21.40
2022-08-17T17:40:08.733Z,15.00
2022-08-17T17:42:24.455Z,19.90
2022-08-17T17:44:41.963Z,19.60
2022-08-17T17:46:58.068Z,13.80
2022-08-17T17:49:12.353Z,17.20
2022-08-17T17:52:05.222Z,15.90
2022-08-17T17:54:10.030Z,12.90
2022-08-17T17:56:44.132Z,13.80
2022-08-17T17:59:04.985Z,15.00
2022-08-17T18:01:44.945Z,22.40
2022-08-17T18:04:20.878Z,22.30
2022-08-17T18:06:42.695Z,19.30
2022-08-17T18:09:06.480Z,23.20
2022-08-17T18:11:33.050Z,23.00
2022-08-17T18:14:03.916Z,20.60
2022-08-17T18:16:20.365Z,17.10
2022-08-17T18:18:41.571Z,20.40
2022-08-17T18:20:56.362Z,19.10
2022-08-17T18:23:09.889Z,19.10
2022-08-17T18:25:45.850Z,12.00
2022-08-17T18:27:58.849Z,17.90
2022-08-17T18:30:31.357Z,24.00
2022-08-17T18:32:45.643Z,16.00
2022-08-17T18:35:01.886Z,16.80
2022-08-17T18:37:16.162Z,18.30
2022-08-17T18:39:34.096Z,15.30
2022-08-17T18:41:49.320Z,13.90
2022-08-17T18:44:08.158Z,28.60
2022-08-17T18:46:36.228Z,15.90
2022-08-17T18:48:59.818Z,26.10
2022-08-17T18:51:42.358Z,17.60
2022-08-17T18:54:09.746Z,28.80
2022-08-17T18:56:38.561Z,28.20
2022-08-17T18:59:01.645Z,17.10
2022-08-17T19:01:46.904Z,18.90
2022-08-17T19:06:26.072Z,20.30
2022-08-17T19:08:41.557Z,17.20
2022-08-17T19:10:59.008Z,15.90
2022-08-17T19:13:23.299Z,23.40
2022-08-17T19:15:42.780Z,25.50
2022-08-17T19:18:02.467Z,15.30
2022-08-17T19:20:21.654Z,23.80
2022-08-17T19:22:41.960Z,21.10
2022-08-17T19:25:02.756Z,24.50
2022-08-17T19:27:24.029Z,17.00
2022-08-17T19:29:44.523Z,22.70
2022-08-17T19:31:57.885Z,16.90
2022-08-17T19:34:10.816Z,22.80
2022-08-17T19:36:36.628Z,19.60
2022-08-17T19:38:57.932Z,19.50
2022-08-17T19:41:16.795Z,12.70
2022-08-17T19:43:42.139Z,15.70
2022-08-17T19:46:05.037Z,21.80
2022-08-17T19:48:28.100Z,14.10
2022-08-17T19:50:45.451Z,15.40
2022-08-17T19:53:08.602Z,23.40
2022-08-17T19:55:33.795Z,20.70
2022-08-17T19:57:57.360Z,24.00
2022-08-17T20:00:14.555Z,21.70
2022-08-17T20:02:41.103Z,26.50
2022-08-17T20:04:56.636Z,39.00
2022-08-17T20:07:11.866Z,38.80
2022-08-17T20:09:35.135Z,46.30
2022-08-17T20:11:52.978Z,36.40
2022-08-17T20:14:13.208Z,40.50
2022-08-17T20:16:26.536Z,37.40
2022-08-17T20:18:47.699Z,36.60
2022-08-17T20:21:04.845Z,40.70
2022-08-17T20:23:27.027Z,44.10
2022-08-17T20:25:46.911Z,36.90
2022-08-17T20:28:06.286Z,30.30
2022-08-17T20:30:38.729Z,29.00
2022-08-17T20:33:00.447Z,34.90
2022-08-17T20:35:28.789Z,33.40
2022-08-17T20:37:45.973Z,28.10
2022-08-17T20:40:23.895Z,28.70
2022-08-17T20:42:38.692Z,37.60
2022-08-17T20:44:53.127Z,25.60
2022-08-17T20:47:14.009Z,39.30
2022-08-17T20:49:33.586Z,23.00
2022-08-17T20:52:00.754Z,29.60
2022-08-17T20:54:56.286Z,26.90
2022-08-17T20:57:14.307Z,22.90
2022-08-17T21:00:03.931Z,22.30
2022-08-17T21:02:26.022Z,20.10
2022-08-17T21:05:01.396Z,19.80
2022-08-17T21:07:43.401Z,18.40
2022-08-17T21:10:11.315Z,11.80
2022-08-17T21:12:49.201Z,19.40
2022-08-17T21:15:07.124Z,12.40
2022-08-17T21:17:43.092Z,11.00
2022-08-17T21:20:11.462Z,4.80
2022-08-17T21:22:35.866Z,3.60
2022-08-17T21:25:00.626Z,2.50
2022-08-17T21:27:23.868Z,4.80
2022-08-17T21:29:40.282Z,3.50
2022-08-17T21:32:15.884Z,3.40
2022-08-17T21:34:36.877Z,6.00
2022-08-17T21:36:50.739Z,2.10
2022-08-17T21:39:10.116Z,3.90
2022-08-17T21:41:28.636Z,4.50
2022-08-17T21:43:49.586Z,3.60
2022-08-17T21:46:09.421Z,5.80
2022-08-17T21:48:26.037Z,5.40
2022-08-17T21:50:39.957Z,4.30
2022-08-17T21:52:55.675Z,3.10
2022-08-17T21:55:09.072Z,4.70
2022-08-17T21:57:28.545Z,3.00
2022-08-17T21:59:44.853Z,2.70
2022-08-17T22:02:00.306Z,3.70
2022-08-17T22:04:27.815Z,4.50
2022-08-17T22:06:52.604Z,3.40
2022-08-17T22:09:26.934Z,2.40
2022-08-17T22:11:54.337Z,3.00
2022-08-17T22:14:19.230Z,2.20
2022-08-17T22:16:33.976Z,3.40
2022-08-17T22:18:49.109Z,6.90
2022-08-17T22:21:09.506Z,4.50
2022-08-17T22:23:46.947Z,3.30
2022-08-17T22:26:09.514Z,3.20
2022-08-17T22:28:42.111Z,9.60
2022-08-17T22:31:07.313Z,22.10
2022-08-17T22:33:42.677Z,14.40
2022-08-17T22:36:11.465Z,5.70
2022-08-17T22:38:35.345Z,38.90
2022-08-17T22:40:50.921Z,25.90
2022-08-17T22:43:05.512Z,26.10
2022-08-17T22:45:18.786Z,42.90
2022-08-17T22:47:39.970Z,25.60
2022-08-17T22:49:58.675Z,26.60
2022-08-17T22:52:32.338Z,22.30
2022-08-17T22:55:09.428Z,14.70
2022-08-17T22:57:40.393Z,16.90
2022-08-17T22:59:55.656Z,26.20
2022-08-17T23:02:27.703Z,3.40
2022-08-17T23:04:43.318Z,2.20
2022-08-17T23:06:57.235Z,18.60
2022-08-17T23:09:11.553Z,7.70
2022-08-17T23:11:36.933Z,17.90
2022-08-17T23:14:02.226Z,19.50
2022-08-17T23:16:16.150Z,15.60
2022-08-17T23:18:29.679Z,12.80
2022-08-17T23:20:44.499Z,14.50
2022-08-17T23:22:57.696Z,14.70
2022-08-17T23:25:25.723Z,9.50
2022-08-17T23:27:38.830Z,3.70
2022-08-17T23:29:52.096Z,2.30
2022-08-17T23:32:06.036Z,3.10
2022-08-17T23:34:20.144Z,3.50
2022-08-17T23:36:33.644Z,4.00
2022-08-17T23:38:47.970Z,4.00
2022-08-17T23:41:03.031Z,2.00
2022-08-17T23:43:24.723Z,3.00
2022-08-17T23:45:40.008Z,3.40
2022-08-17T23:47:53.370Z,1.50
2022-08-17T23:50:06.689Z,1.90
2022-08-17T23:52:20.798Z,1.00
2022-08-17T23:54:38.764Z,2.20
2022-08-17T23:56:51.764Z,5.20
2022-08-17T23:59:04.982Z,3.60
